Kenseh, Arkansas
Current Conditions -  °F | °C
As of 11:56 AM on Friday 24 Oct 2014 (Local Time) from KSRC Reporting Station
Clear Clear  
Wind Chill: 69°   Ceiling: Unl
Heat Index: 69°   Visibility: 10mi
Dew Point: 53°   Wind: 3mph
Humidity: 57%   Direction: NA
Pressure: 30.17"   Gusts: NA
Location:  35.2119°N, 91.6651°W
Report Text: KSRC 241656Z AUTO VRB03KT 10SM CLR 21/12 A3017 RMK AO2 SLP221 T02060117 TSNO
Loading
Personal Weather Stations






























Interactive Weather Map
Tropical Storm Tracking
New forecast layout! Learn more

10-Day Weather Forecast

Advertisements
Track Severe Weather on mobile